createdAt,value
2022-09-09T00:01:31.590Z,80.10
2022-09-09T00:04:05.307Z,80.20
2022-09-09T00:06:36.523Z,80.30
2022-09-09T00:09:12.453Z,80.30
2022-09-09T00:11:45.096Z,80.20
2022-09-09T00:14:23.917Z,80.20
2022-09-09T00:16:57.595Z,80.30
2022-09-09T00:19:33.155Z,80.30
2022-09-09T00:22:11.222Z,80.20
2022-09-09T00:24:45.596Z,80.10
2022-09-09T00:27:30.222Z,80.30
2022-09-09T00:30:02.561Z,80.10
2022-09-09T00:32:36.730Z,80.10
2022-09-09T00:35:13.806Z,80.20
2022-09-09T00:37:43.133Z,80.20
2022-09-09T00:40:24.182Z,80.20
2022-09-09T00:43:05.626Z,80.30
2022-09-09T00:46:10.134Z,80.40
2022-09-09T00:48:49.714Z,80.50
2022-09-09T00:51:26.023Z,80.50
2022-09-09T00:54:11.916Z,80.60
2022-09-09T00:56:45.761Z,80.40
2022-09-09T00:59:28.625Z,80.40
2022-09-09T01:01:57.196Z,80.40
2022-09-09T01:04:33.673Z,80.40
2022-09-09T01:07:13.630Z,80.40
2022-09-09T01:09:53.646Z,80.40
2022-09-09T01:12:32.384Z,80.40
2022-09-09T01:15:11.238Z,80.40
2022-09-09T01:17:52.528Z,80.40
2022-09-09T01:20:26.919Z,81.30
2022-09-09T01:23:19.459Z,80.60
2022-09-09T01:26:24.318Z,80.60
2022-09-09T01:28:54.803Z,80.40
2022-09-09T01:31:28.761Z,80.50
2022-09-09T01:33:57.137Z,80.40
2022-09-09T01:36:31.793Z,80.40
2022-09-09T01:39:00.478Z,80.40
2022-09-09T01:41:30.458Z,80.50
2022-09-09T01:43:59.703Z,80.40
2022-09-09T01:46:29.341Z,80.40
2022-09-09T01:48:58.539Z,80.40
2022-09-09T01:51:26.983Z,80.60
2022-09-09T01:53:55.297Z,80.60
2022-09-09T01:56:45.606Z,80.40
2022-09-09T01:59:33.800Z,80.50
2022-09-09T02:02:11.984Z,80.40
2022-09-09T02:04:43.495Z,80.40
2022-09-09T02:07:31.547Z,80.50
2022-09-09T02:10:07.819Z,80.40
2022-09-09T02:12:39.413Z,80.40
2022-09-09T02:15:14.830Z,80.50
2022-09-09T02:17:44.424Z,80.50
2022-09-09T02:20:15.881Z,80.50
2022-09-09T02:22:46.861Z,80.40
2022-09-09T02:25:19.409Z,80.40
2022-09-09T02:27:52.638Z,80.40
2022-09-09T02:30:21.976Z,80.40
2022-09-09T02:32:53.919Z,80.30
2022-09-09T02:35:27.647Z,80.40
2022-09-09T02:38:01.191Z,80.30
2022-09-09T02:40:29.581Z,80.40
2022-09-09T02:43:01.198Z,80.30
2022-09-09T02:45:36.902Z,80.30
2022-09-09T02:48:14.809Z,80.20
2022-09-09T02:50:54.854Z,80.20
2022-09-09T02:53:26.766Z,80.20
2022-09-09T02:55:59.284Z,80.20
2022-09-09T02:58:29.598Z,80.20
2022-09-09T03:00:59.713Z,80.20
2022-09-09T03:03:28.217Z,80.20
2022-09-09T03:05:56.493Z,80.30
2022-09-09T03:08:24.966Z,80.20
2022-09-09T03:10:55.066Z,80.20
2022-09-09T03:13:23.434Z,80.40
2022-09-09T03:15:53.576Z,80.40
2022-09-09T03:18:21.842Z,80.30
2022-09-09T03:20:50.678Z,80.40
2022-09-09T03:23:19.462Z,80.40
2022-09-09T03:25:51.340Z,80.30
2022-09-09T03:28:19.675Z,80.20
2022-09-09T03:30:48.263Z,80.20
2022-09-09T03:33:18.874Z,80.20
2022-09-09T03:35:49.916Z,80.20
2022-09-09T03:38:18.226Z,80.10
2022-09-09T03:40:52.364Z,80.00
2022-09-09T03:43:20.964Z,80.00
2022-09-09T03:45:49.604Z,80.30
2022-09-09T03:48:20.211Z,80.20
2022-09-09T03:50:49.236Z,80.20
2022-09-09T03:53:18.698Z,80.10
2022-09-09T03:55:47.655Z,80.20
2022-09-09T03:58:17.345Z,80.20
2022-09-09T04:00:46.119Z,80.00
2022-09-09T04:03:14.789Z,80.20
2022-09-09T04:05:44.470Z,80.20
2022-09-09T04:08:13.677Z,80.20
2022-09-09T04:10:43.127Z,80.00
2022-09-09T04:13:12.643Z,80.20
2022-09-09T04:15:41.817Z,80.20
2022-09-09T04:18:10.474Z,80.10
2022-09-09T04:20:38.820Z,80.20
2022-09-09T04:23:08.504Z,80.00
2022-09-09T04:25:36.842Z,80.00
2022-09-09T04:28:05.682Z,80.20
2022-09-09T04:30:35.990Z,80.00
2022-09-09T04:33:04.277Z,79.90
2022-09-09T04:35:32.590Z,79.70
2022-09-09T04:38:00.876Z,79.90
2022-09-09T04:40:30.582Z,79.80
2022-09-09T04:43:00.966Z,79.80
2022-09-09T04:45:29.541Z,79.90
2022-09-09T04:47:57.857Z,79.70
2022-09-09T04:50:26.730Z,79.80
2022-09-09T04:52:55.046Z,79.70
2022-09-09T04:55:23.321Z,79.50
2022-09-09T04:57:53.024Z,79.70
2022-09-09T05:00:21.485Z,79.70
2022-09-09T05:02:49.810Z,79.70
2022-09-09T05:05:19.722Z,79.50
2022-09-09T05:07:49.304Z,80.40
2022-09-09T05:10:19.314Z,79.70
2022-09-09T05:12:56.247Z,79.70
2022-09-09T05:15:24.624Z,79.50
2022-09-09T05:17:54.279Z,79.50
2022-09-09T05:20:22.577Z,79.30
2022-09-09T05:22:54.755Z,79.30
2022-09-09T05:25:23.281Z,79.70
2022-09-09T05:27:51.666Z,79.40
2022-09-09T05:30:21.635Z,79.50
2022-09-09T05:32:50.050Z,79.50
2022-09-09T05:35:20.192Z,79.30
2022-09-09T05:37:48.960Z,79.30
2022-09-09T05:40:17.473Z,79.30
2022-09-09T05:42:45.805Z,79.20
2022-09-09T05:45:14.115Z,79.20
2022-09-09T05:47:43.989Z,79.20
2022-09-09T05:50:12.354Z,79.20
2022-09-09T05:52:40.627Z,79.20
2022-09-09T05:55:10.309Z,79.10
2022-09-09T05:57:38.786Z,79.40
2022-09-09T06:00:08.103Z,79.20
2022-09-09T06:02:38.372Z,79.30
2022-09-09T06:05:09.512Z,79.50
2022-09-09T06:07:38.534Z,79.40
2022-09-09T06:10:08.156Z,79.10
2022-09-09T06:12:36.683Z,79.20
2022-09-09T06:15:05.650Z,79.00
2022-09-09T06:17:33.932Z,79.00
2022-09-09T06:20:02.285Z,79.00
2022-09-09T06:22:32.041Z,78.90
2022-09-09T06:25:01.173Z,79.00
2022-09-09T06:27:30.946Z,79.00
2022-09-09T06:29:59.236Z,79.20
2022-09-09T06:32:28.064Z,79.10
2022-09-09T06:34:56.343Z,79.10
2022-09-09T06:37:25.227Z,79.00
2022-09-09T06:39:55.957Z,79.00
2022-09-09T06:42:24.535Z,78.90
2022-09-09T06:44:53.394Z,78.90
2022-09-09T06:47:21.726Z,79.10
2022-09-09T06:49:49.968Z,79.10
2022-09-09T06:52:19.277Z,79.20
2022-09-09T06:54:47.686Z,79.20
2022-09-09T07:00:06.455Z,79.30
2022-09-09T07:02:40.088Z,79.30
2022-09-09T07:05:09.791Z,79.10
2022-09-09T07:07:38.902Z,79.00
2022-09-09T07:10:08.647Z,78.90
2022-09-09T07:12:38.496Z,79.00
2022-09-09T07:15:07.887Z,80.00
2022-09-09T07:17:36.410Z,80.20
2022-09-09T07:20:05.739Z,79.90
2022-09-09T07:22:34.210Z,79.70
2022-09-09T07:25:03.338Z,80.60
2022-09-09T07:27:31.825Z,80.70
2022-09-09T07:30:03.610Z,80.60
2022-09-09T07:32:32.632Z,81.10
2022-09-09T07:35:01.030Z,81.10
2022-09-09T07:37:29.298Z,80.90
2022-09-09T07:39:57.714Z,80.90
2022-09-09T07:42:26.038Z,81.20
2022-09-09T07:44:56.158Z,81.40
2022-09-09T07:47:25.954Z,81.30
2022-09-09T07:49:54.348Z,81.70
2022-09-09T07:52:22.645Z,81.60
2022-09-09T07:54:50.987Z,80.70
2022-09-09T07:57:19.724Z,81.40
2022-09-09T07:59:48.106Z,82.10
2022-09-09T08:02:16.391Z,81.80
2022-09-09T08:04:46.539Z,81.60
2022-09-09T08:07:14.997Z,80.90
2022-09-09T08:09:43.273Z,80.00
2022-09-09T08:12:14.056Z,80.60
2022-09-09T08:14:42.392Z,80.10
2022-09-09T08:17:11.128Z,80.40
2022-09-09T08:19:39.446Z,81.00
2022-09-09T08:22:09.952Z,79.80
2022-09-09T08:24:38.305Z,80.00
2022-09-09T08:27:06.714Z,81.70
2022-09-09T08:29:36.477Z,80.80
2022-09-09T08:32:05.512Z,81.20
2022-09-09T08:34:33.909Z,82.40
2022-09-09T08:37:02.225Z,82.80
2022-09-09T08:39:33.477Z,82.70
2022-09-09T08:42:28.843Z,82.40
2022-09-09T08:45:17.208Z,81.30
2022-09-09T08:47:55.167Z,82.30
2022-09-09T08:50:27.807Z,82.60
2022-09-09T08:53:02.732Z,82.70
2022-09-09T08:55:41.078Z,82.90
2022-09-09T08:58:15.124Z,82.90
2022-09-09T09:01:05.613Z,82.70
2022-09-09T09:03:43.452Z,82.30
2022-09-09T09:06:29.247Z,82.40
2022-09-09T09:09:03.754Z,82.20
2022-09-09T09:11:39.862Z,82.10
2022-09-09T09:14:12.745Z,81.90
2022-09-09T09:16:51.644Z,82.30
2022-09-09T09:19:23.807Z,82.40
2022-09-09T09:21:57.203Z,82.20
2022-09-09T09:24:33.545Z,82.00
2022-09-09T09:27:14.101Z,81.90
2022-09-09T09:30:10.107Z,82.10
2022-09-09T09:32:37.172Z,81.50
2022-09-09T09:35:11.877Z,81.60
2022-09-09T09:40:31.260Z,81.50
2022-09-09T09:43:07.451Z,82.00
2022-09-09T09:45:37.649Z,82.30
2022-09-09T09:48:13.833Z,82.20
2022-09-09T09:50:50.985Z,82.00
2022-09-09T09:53:24.875Z,81.60
2022-09-09T09:55:58.200Z,81.50
2022-09-09T09:58:29.601Z,81.70
2022-09-09T10:00:57.972Z,81.40
2022-09-09T10:03:28.821Z,81.20
2022-09-09T10:05:58.054Z,81.30
2022-09-09T10:08:28.136Z,81.30
2022-09-09T10:11:10.849Z,81.20
2022-09-09T10:13:51.556Z,81.10
2022-09-09T10:16:41.545Z,80.70
2022-09-09T10:19:16.097Z,80.70
2022-09-09T10:22:04.414Z,80.80
2022-09-09T10:25:13.672Z,80.70
2022-09-09T10:27:57.023Z,80.40
2022-09-09T10:30:35.795Z,80.30
2022-09-09T10:33:11.365Z,80.10
2022-09-09T10:35:47.436Z,79.90
2022-09-09T10:38:20.008Z,79.90
2022-09-09T10:41:07.106Z,80.10
2022-09-09T10:44:06.264Z,80.30
2022-09-09T10:46:45.965Z,80.30
2022-09-09T10:49:26.196Z,80.50
2022-09-09T10:52:03.939Z,80.60
2022-09-09T10:54:47.967Z,80.60
2022-09-09T10:57:25.252Z,80.50
2022-09-09T10:59:58.013Z,80.30
2022-09-09T11:02:30.722Z,80.30
2022-09-09T11:05:03.714Z,80.20
2022-09-09T11:07:39.295Z,80.30
2022-09-09T11:10:19.325Z,80.70
2022-09-09T11:12:49.819Z,80.50
2022-09-09T11:15:22.487Z,80.20
2022-09-09T11:17:57.691Z,80.10
2022-09-09T11:20:28.060Z,80.00
2022-09-09T11:23:01.730Z,79.90
2022-09-09T11:25:37.607Z,79.80
2022-09-09T11:28:23.520Z,80.00
2022-09-09T11:31:08.622Z,80.00
2022-09-09T11:34:11.864Z,79.80
2022-09-09T11:37:02.492Z,80.00
2022-09-09T11:40:06.349Z,80.10
2022-09-09T11:42:34.791Z,80.30
2022-09-09T11:45:14.145Z,80.10
2022-09-09T11:47:54.817Z,80.10
2022-09-09T11:50:37.593Z,80.10
2022-09-09T11:53:25.436Z,80.00
2022-09-09T11:56:08.501Z,80.00
2022-09-09T11:58:41.926Z,79.80
2022-09-09T12:01:39.843Z,80.00
2022-09-09T12:04:24.567Z,79.70
2022-09-09T12:06:58.326Z,79.60
2022-09-09T12:09:32.313Z,79.30
2022-09-09T12:12:24.914Z,80.00
2022-09-09T12:15:18.617Z,79.20
2022-09-09T12:17:48.548Z,79.10
2022-09-09T12:20:18.947Z,79.00
2022-09-09T12:23:06.246Z,79.00
2022-09-09T12:25:51.327Z,79.80
2022-09-09T12:28:22.417Z,79.30
2022-09-09T12:30:59.105Z,79.40
2022-09-09T12:33:35.673Z,79.00
2022-09-09T12:36:05.902Z,79.30
2022-09-09T12:38:38.391Z,79.20
2022-09-09T12:41:07.450Z,78.90
2022-09-09T12:43:35.795Z,78.80
2022-09-09T12:46:09.805Z,78.60
2022-09-09T12:48:42.488Z,78.50
2022-09-09T12:51:21.805Z,78.50
2022-09-09T12:53:51.580Z,78.30
2022-09-09T12:56:25.228Z,78.10
2022-09-09T12:58:55.861Z,78.30
2022-09-09T13:01:26.749Z,78.30
2022-09-09T13:03:55.813Z,78.10
2022-09-09T13:06:29.155Z,78.10
2022-09-09T13:09:01.352Z,77.90
2022-09-09T13:11:33.843Z,77.80
2022-09-09T13:14:02.904Z,77.70
2022-09-09T13:16:34.973Z,77.80
2022-09-09T13:19:10.956Z,77.50
2022-09-09T13:21:41.330Z,77.40
2022-09-09T13:24:30.783Z,77.40
2022-09-09T13:26:59.911Z,77.40
2022-09-09T13:29:28.245Z,77.20
2022-09-09T13:32:06.228Z,77.10
2022-09-09T13:34:36.527Z,77.30
2022-09-09T13:37:07.508Z,77.10
2022-09-09T13:39:39.563Z,77.00
2022-09-09T13:42:09.505Z,77.10
2022-09-09T13:44:41.291Z,77.80
2022-09-09T13:47:21.281Z,77.50
2022-09-09T13:49:49.699Z,77.50
2022-09-09T13:52:20.171Z,77.40
2022-09-09T13:54:52.241Z,77.10
2022-09-09T13:57:22.323Z,77.10
2022-09-09T14:00:06.749Z,77.10
2022-09-09T14:02:35.891Z,77.10
2022-09-09T14:05:04.488Z,77.00
2022-09-09T14:07:33.198Z,76.80
2022-09-09T14:10:02.877Z,76.70
2022-09-09T14:12:31.213Z,76.50
2022-09-09T14:15:00.802Z,76.70
2022-09-09T14:17:32.297Z,77.20
2022-09-09T14:20:01.186Z,77.40
2022-09-09T14:22:29.590Z,77.40
2022-09-09T14:24:58.717Z,77.20
2022-09-09T14:27:28.644Z,77.20
2022-09-09T14:29:57.185Z,77.20
2022-09-09T14:32:25.742Z,77.20
2022-09-09T14:34:54.293Z,77.20
2022-09-09T14:37:22.782Z,77.20
2022-09-09T14:39:51.782Z,77.10
2022-09-09T14:42:20.302Z,77.10
2022-09-09T14:44:50.047Z,77.10
2022-09-09T14:47:18.395Z,76.90
2022-09-09T14:49:47.352Z,76.90
2022-09-09T14:52:15.754Z,76.80
2022-09-09T14:54:44.295Z,76.70
2022-09-09T14:57:12.616Z,76.70
2022-09-09T14:59:41.046Z,76.50
2022-09-09T15:02:11.626Z,76.50
2022-09-09T15:04:40.460Z,76.50
2022-09-09T15:07:09.058Z,76.50
2022-09-09T15:09:38.351Z,76.40
2022-09-09T15:12:06.852Z,76.40
2022-09-09T15:14:36.319Z,76.30
2022-09-09T15:17:04.689Z,76.30
2022-09-09T15:19:34.539Z,76.20
2022-09-09T15:22:02.985Z,76.10
2022-09-09T15:24:31.323Z,76.10
2022-09-09T15:26:59.752Z,76.00
2022-09-09T15:29:28.752Z,76.00
2022-09-09T15:31:57.416Z,76.00
2022-09-09T15:34:26.598Z,76.00
2022-09-09T15:36:56.859Z,76.00
2022-09-09T15:39:25.344Z,75.90
2022-09-09T15:41:53.943Z,75.90
2022-09-09T15:44:23.299Z,75.90
2022-09-09T15:46:54.636Z,75.90
2022-09-09T15:49:26.570Z,75.70
2022-09-09T15:51:58.667Z,75.80
2022-09-09T15:54:28.524Z,75.70
2022-09-09T15:56:58.264Z,75.70
2022-09-09T15:59:28.891Z,75.70
2022-09-09T16:01:57.807Z,75.70
2022-09-09T16:04:26.716Z,75.60
2022-09-09T16:06:59.514Z,75.60
2022-09-09T16:09:28.674Z,75.60
2022-09-09T16:11:59.868Z,75.50
2022-09-09T16:14:28.394Z,75.40
2022-09-09T16:16:59.561Z,75.30
2022-09-09T16:19:27.952Z,75.30
2022-09-09T16:21:57.755Z,75.30
2022-09-09T16:24:26.809Z,75.30
2022-09-09T16:26:56.653Z,75.10
2022-09-09T16:29:28.421Z,75.00
2022-09-09T16:32:00.002Z,74.80
2022-09-09T16:34:31.846Z,74.90
2022-09-09T16:37:03.154Z,74.90
2022-09-09T16:39:31.636Z,74.80
2022-09-09T16:42:00.910Z,74.80
2022-09-09T16:44:31.083Z,74.70
2022-09-09T16:47:00.946Z,74.60
2022-09-09T16:49:30.140Z,74.50
2022-09-09T16:52:01.677Z,74.50
2022-09-09T16:54:30.107Z,74.50
2022-09-09T16:56:59.147Z,74.60
2022-09-09T16:59:27.659Z,74.60
2022-09-09T17:01:56.363Z,74.50
2022-09-09T17:04:29.058Z,74.50
2022-09-09T17:06:58.484Z,74.60
2022-09-09T17:09:30.293Z,74.60
2022-09-09T17:11:59.520Z,74.60
2022-09-09T17:14:27.975Z,74.60
2022-09-09T17:17:02.084Z,74.80
2022-09-09T17:19:42.202Z,74.90
2022-09-09T17:22:17.141Z,75.10
2022-09-09T17:24:47.612Z,75.10
2022-09-09T17:27:15.929Z,75.20
2022-09-09T17:29:44.269Z,75.30
2022-09-09T17:32:12.674Z,75.20
2022-09-09T17:34:41.022Z,75.40
2022-09-09T17:37:09.304Z,75.50
2022-09-09T17:39:37.881Z,75.50
2022-09-09T17:42:08.468Z,75.60
2022-09-09T17:44:36.775Z,75.50
2022-09-09T17:47:07.241Z,75.70
2022-09-09T17:49:35.835Z,75.80
2022-09-09T17:52:04.641Z,75.80
2022-09-09T17:54:34.693Z,75.70
2022-09-09T17:57:03.079Z,75.70
2022-09-09T17:59:32.784Z,75.70
2022-09-09T18:02:02.023Z,75.70
2022-09-09T18:04:30.416Z,75.80
2022-09-09T18:06:59.358Z,75.80
2022-09-09T18:09:29.280Z,75.80
2022-09-09T18:12:00.327Z,76.00
2022-09-09T18:14:31.431Z,76.00
2022-09-09T18:17:02.335Z,75.90
2022-09-09T18:19:34.610Z,75.90
2022-09-09T18:22:05.492Z,76.00
2022-09-09T18:24:34.352Z,76.10
2022-09-09T18:27:02.698Z,76.20
2022-09-09T18:29:31.300Z,76.10
2022-09-09T18:32:01.071Z,76.20
2022-09-09T18:34:30.377Z,76.30
2022-09-09T18:36:58.955Z,76.40
2022-09-09T18:39:29.871Z,77.30
2022-09-09T18:42:00.770Z,76.60
2022-09-09T18:44:32.586Z,76.70
2022-09-09T18:47:03.383Z,76.80
2022-09-09T18:49:33.378Z,77.00
2022-09-09T18:52:02.858Z,77.10
2022-09-09T18:54:33.600Z,77.40
2022-09-09T18:57:04.050Z,77.10
2022-09-09T18:59:32.435Z,77.60
2022-09-09T19:02:02.226Z,77.50
2022-09-09T19:04:33.256Z,77.60
2022-09-09T19:07:01.625Z,77.40
2022-09-09T19:09:34.151Z,77.20
2022-09-09T19:12:03.413Z,77.10
2022-09-09T19:14:31.955Z,77.50
2022-09-09T19:17:01.825Z,77.10
2022-09-09T19:19:32.124Z,77.60
2022-09-09T19:22:01.806Z,77.40
2022-09-09T19:24:32.608Z,77.60
2022-09-09T19:27:03.010Z,77.80
2022-09-09T19:29:33.427Z,77.90
2022-09-09T19:32:49.726Z,77.50
2022-09-09T19:34:52.621Z,77.80
2022-09-09T19:37:22.752Z,77.60
2022-09-09T19:39:51.546Z,77.60
2022-09-09T19:42:20.422Z,77.70
2022-09-09T19:44:50.235Z,77.70
2022-09-09T19:47:20.547Z,78.00
2022-09-09T19:49:50.556Z,77.70
2022-09-09T19:52:19.787Z,77.70
2022-09-09T19:54:48.252Z,77.60
2022-09-09T19:57:16.691Z,77.40
2022-09-09T19:59:45.481Z,77.80
2022-09-09T20:02:16.017Z,77.70
2022-09-09T20:04:45.871Z,77.60
2022-09-09T20:07:14.958Z,77.70
2022-09-09T20:09:43.475Z,77.80
2022-09-09T20:12:11.875Z,77.80
2022-09-09T20:14:40.511Z,77.60
2022-09-09T20:17:10.374Z,77.80
2022-09-09T20:19:39.953Z,77.80
2022-09-09T20:22:10.010Z,77.80
2022-09-09T20:24:38.293Z,77.80
2022-09-09T20:27:08.277Z,78.10
2022-09-09T20:29:39.363Z,77.80
2022-09-09T20:32:08.037Z,77.90
2022-09-09T20:34:36.692Z,77.80
2022-09-09T20:37:06.040Z,77.80
2022-09-09T20:39:37.238Z,77.90
2022-09-09T20:42:06.106Z,78.10
2022-09-09T20:44:34.566Z,77.80
2022-09-09T20:47:06.609Z,77.80
2022-09-09T20:49:36.242Z,77.80
2022-09-09T20:52:05.030Z,77.80
2022-09-09T20:54:35.296Z,77.70
2022-09-09T20:57:07.237Z,77.80
2022-09-09T20:59:35.919Z,77.80
2022-09-09T21:02:04.628Z,77.70
2022-09-09T21:04:33.056Z,77.80
2022-09-09T21:07:02.454Z,77.80
2022-09-09T21:09:31.135Z,78.00
2022-09-09T21:11:59.456Z,77.80
2022-09-09T21:14:29.130Z,78.00
2022-09-09T21:16:57.937Z,78.20
2022-09-09T21:19:26.339Z,78.00
2022-09-09T21:21:54.596Z,78.20
2022-09-09T21:24:22.878Z,78.30
2022-09-09T21:26:51.203Z,78.00
2022-09-09T21:29:19.503Z,78.00
2022-09-09T21:31:49.592Z,78.10
2022-09-09T21:34:18.527Z,78.10
2022-09-09T21:36:46.843Z,78.10
2022-09-09T21:39:15.438Z,78.00
2022-09-09T21:41:43.791Z,78.20
2022-09-09T21:44:14.479Z,78.40
2022-09-09T21:46:44.069Z,78.20
2022-09-09T21:49:14.179Z,78.00
2022-09-09T21:51:42.464Z,79.50
2022-09-09T21:54:10.887Z,78.20
2022-09-09T21:56:39.678Z,78.50
2022-09-09T21:59:08.241Z,78.40
2022-09-09T22:01:36.682Z,78.20
2022-09-09T22:04:05.332Z,78.50
2022-09-09T22:06:35.407Z,78.50
2022-09-09T22:09:03.930Z,78.30
2022-09-09T22:11:35.171Z,78.60
2022-09-09T22:14:03.828Z,78.40
2022-09-09T22:16:32.463Z,78.30
2022-09-09T22:19:02.483Z,78.20
2022-09-09T22:21:32.276Z,78.20
2022-09-09T22:24:03.629Z,78.20
2022-09-09T22:26:34.657Z,78.10
2022-09-09T22:29:04.074Z,78.20
2022-09-09T22:31:33.306Z,78.70
2022-09-09T22:34:01.628Z,78.40
2022-09-09T22:36:29.981Z,78.40
2022-09-09T22:38:58.276Z,78.80
2022-09-09T22:41:30.073Z,78.70
2022-09-09T22:43:59.021Z,78.50
2022-09-09T22:46:27.375Z,78.60
2022-09-09T22:48:55.714Z,78.50
2022-09-09T22:51:24.026Z,78.70
2022-09-09T22:53:52.277Z,78.60
2022-09-09T22:56:21.410Z,78.80
2022-09-09T22:58:55.949Z,78.50
2022-09-09T23:01:25.871Z,78.30
2022-09-09T23:03:59.246Z,78.50
2022-09-09T23:06:29.764Z,78.30
2022-09-09T23:09:00.104Z,78.40
2022-09-09T23:11:31.819Z,78.70
2022-09-09T23:14:03.601Z,78.60
2022-09-09T23:16:34.513Z,78.70
2022-09-09T23:19:03.245Z,78.60
2022-09-09T23:21:32.534Z,79.20
2022-09-09T23:24:01.255Z,78.50
2022-09-09T23:26:30.030Z,78.60
2022-09-09T23:28:59.506Z,78.50
2022-09-09T23:31:33.006Z,79.10
2022-09-09T23:34:02.419Z,78.50
2022-09-09T23:36:31.821Z,78.50
2022-09-09T23:39:02.176Z,78.40
2022-09-09T23:41:31.319Z,78.40
2022-09-09T23:43:59.646Z,78.30
2022-09-09T23:46:30.140Z,78.30
2022-09-09T23:48:59.147Z,78.30
2022-09-09T23:51:30.656Z,78.20
2022-09-09T23:54:01.963Z,78.30
2022-09-09T23:56:32.428Z,78.20
2022-09-09T23:59:00.800Z,78.20
